Indian Lake, New York
Current Conditions -  °F | °C
As of 4:51 AM on Monday 26 Jan 2015 (Local Time) from KSLK Reporting Station
Clear Clear  
Wind Chill: -24°   Ceiling: Unl
Heat Index: -24°   Visibility: 10mi
Dew Point: -29°   Wind: 3mph
Humidity: 77%   Direction: 20°NNE
Pressure: 29.95"   Gusts: NA
Location:  43.78°N, 74.27°W
Report Text: KSLK 260951Z AUTO 02003KT 10SM CLR M31/M34 A2995 RMK AO2 SLP196 T13111339
Loading
Personal Weather Stations






























Interactive Weather Map New forecast layout! Learn more

10-Day Weather Forecast

Advertisements
Track Severe Weather on mobile